Time;durP1;ratioP1;P1;durP2;ratioP2;P2;SDS_P1;SDS_P2;PMS_P1;PMS_P2;Temp;Humidity;BMP_temperature;BMP_pressure;BME280_temperature;BME280_humidity;BME280_pressure;Samples;Min_cycle;Max_cycle;Signal;HPM_P1;HPM_P2
2023/09/16 00:01:12;;;;;;;3.70;2.47;;;;;;;;;;5077760;28;20693;-70
2023/09/16 00:03:41;;;;;;;2.73;2.37;;;;;;;;;;5078173;28;20209;-71
2023/09/16 00:06:12;;;;;;;2.47;2.27;;;;;;;;;;5077715;28;20211;-70
2023/09/16 00:08:41;;;;;;;2.43;2.07;;;;;;;;;;5077935;28;20229;-70
2023/09/16 00:11:10;;;;;;;4.13;2.27;;;;;;;;;;5077528;28;20229;-70
2023/09/16 00:13:38;;;;;;;2.63;2.17;;;;;;;;;;5077994;28;20239;-70
2023/09/16 00:16:06;;;;;;;2.50;2.30;;;;;;;;;;5077581;28;20673;-70
2023/09/16 00:18:34;;;;;;;2.83;2.13;;;;;;;;;;5077849;28;20234;-70
2023/09/16 00:21:04;;;;;;;3.83;2.30;;;;;;;;;;5077213;28;20225;-70
2023/09/16 00:23:32;;;;;;;2.13;2.00;;;;;;;;;;5077684;28;20209;-70
2023/09/16 00:26:00;;;;;;;3.30;2.53;;;;;;;;;;5077800;28;20209;-70
2023/09/16 00:28:28;;;;;;;3.23;2.00;;;;;;;;;;5077377;28;20688;-70
2023/09/16 00:30:57;;;;;;;3.63;2.37;;;;;;;;;;5077840;28;20254;-70
2023/09/16 00:33:25;;;;;;;4.50;2.00;;;;;;;;;;5077437;28;20216;-70
2023/09/16 00:35:53;;;;;;;3.93;2.83;;;;;;;;;;5077678;28;20216;-70
2023/09/16 00:38:22;;;;;;;2.87;2.67;;;;;;;;;;5077426;28;20235;-70
2023/09/16 00:40:50;;;;;;;3.57;2.30;;;;;;;;;;5077339;28;20594;-71
2023/09/16 00:43:18;;;;;;;3.63;2.30;;;;;;;;;;5077632;28;20239;-70
2023/09/16 00:45:46;;;;;;;3.77;2.60;;;;;;;;;;5077468;28;20212;-70
2023/09/16 00:48:16;;;;;;;4.00;2.63;;;;;;;;;;5081271;28;20231;-70
2023/09/16 00:50:44;;;;;;;5.20;3.27;;;;;;;;;;5081695;28;20628;-70
2023/09/16 00:53:14;;;;;;;2.93;2.23;;;;;;;;;;5081247;28;20212;-70
2023/09/16 00:55:43;;;;;;;3.00;2.70;;;;;;;;;;5081362;28;20315;-71
2023/09/16 00:58:11;;;;;;;3.10;2.80;;;;;;;;;;5081421;28;20212;-70
2023/09/16 01:00:39;;;;;;;3.30;2.50;;;;;;;;;;5081373;28;20254;-70
2023/09/16 01:03:08;;;;;;;2.83;2.50;;;;;;;;;;5081107;28;20226;-70
2023/09/16 01:05:36;;;;;;;5.60;2.80;;;;;;;;;;5081254;28;20203;-70
2023/09/16 01:08:04;;;;;;;3.63;2.57;;;;;;;;;;5080500;28;20563;-70
2023/09/16 01:10:33;;;;;;;4.77;2.40;;;;;;;;;;5081094;28;20228;-70
2023/09/16 01:13:03;;;;;;;2.90;2.67;;;;;;;;;;5081141;28;20212;-70
2023/09/16 01:15:33;;;;;;;3.17;2.70;;;;;;;;;;5080743;28;20233;-70
2023/09/16 01:18:05;;;;;;;3.13;2.57;;;;;;;;;;5080920;28;20262;-69
2023/09/16 01:20:33;;;;;;;3.30;2.70;;;;;;;;;;5080599;28;20761;-70
2023/09/16 01:23:02;;;;;;;4.43;3.23;;;;;;;;;;5080362;28;20640;-69
2023/09/16 01:25:31;;;;;;;5.03;3.00;;;;;;;;;;5080780;28;20216;-70
2023/09/16 01:27:59;;;;;;;3.63;3.33;;;;;;;;;;5080882;28;20240;-70
2023/09/16 01:30:28;;;;;;;3.70;2.80;;;;;;;;;;5080284;28;20240;-68
2023/09/16 01:32:58;;;;;;;2.87;2.67;;;;;;;;;;5080748;28;20243;-69
2023/09/16 01:35:29;;;;;;;4.30;2.90;;;;;;;;;;5080464;28;20665;-70
2023/09/16 01:37:58;;;;;;;3.47;2.90;;;;;;;;;;5080328;28;20220;-70
2023/09/16 01:40:27;;;;;;;3.20;2.90;;;;;;;;;;5080240;28;20619;-70
2023/09/16 01:42:58;;;;;;;2.60;2.37;;;;;;;;;;5080623;28;20258;-70
2023/09/16 01:45:28;;;;;;;4.67;2.70;;;;;;;;;;5080310;28;20546;-69
2023/09/16 01:47:56;;;;;;;4.50;2.60;;;;;;;;;;5080398;28;20297;-69
2023/09/16 01:50:24;;;;;;;3.13;2.80;;;;;;;;;;5080306;28;20238;-69
2023/09/16 01:52:52;;;;;;;3.20;2.90;;;;;;;;;;5080103;28;20222;-69
2023/09/16 01:55:20;;;;;;;3.23;2.93;;;;;;;;;;5080221;28;20217;-69
2023/09/16 01:57:48;;;;;;;4.73;3.23;;;;;;;;;;5079445;28;20254;-69
2023/09/16 02:00:18;;;;;;;3.57;2.73;;;;;;;;;;5079818;28;20244;-69
2023/09/16 02:02:46;;;;;;;5.57;3.00;;;;;;;;;;5080218;28;20210;-69
2023/09/16 02:05:14;;;;;;;4.80;2.93;;;;;;;;;;5079945;28;20289;-69
2023/09/16 02:07:42;;;;;;;2.60;2.40;;;;;;;;;;5079842;28;20216;-69
2023/09/16 02:10:13;;;;;;;3.83;2.90;;;;;;;;;;5079612;28;20685;-69
2023/09/16 02:12:41;;;;;;;3.17;2.83;;;;;;;;;;5079840;28;20253;-69
2023/09/16 02:15:13;;;;;;;5.27;2.90;;;;;;;;;;5080008;28;20219;-69
2023/09/16 02:17:42;;;;;;;3.63;3.20;;;;;;;;;;5079494;28;20206;-70
2023/09/16 02:20:11;;;;;;;4.67;3.17;;;;;;;;;;5079611;28;20609;-69
2023/09/16 02:22:39;;;;;;;4.43;3.10;;;;;;;;;;5079320;28;20742;-70
2023/09/16 02:25:07;;;;;;;4.73;3.00;;;;;;;;;;5079484;28;20738;-71
2023/09/16 02:27:35;;;;;;;5.23;3.10;;;;;;;;;;5079464;28;20703;-69
2023/09/16 02:30:04;;;;;;;4.60;2.80;;;;;;;;;;5079558;28;20230;-69
2023/09/16 02:32:32;;;;;;;4.17;2.90;;;;;;;;;;5079407;28;20224;-69
2023/09/16 02:35:01;;;;;;;4.40;2.93;;;;;;;;;;5079565;28;20206;-69
2023/09/16 02:37:29;;;;;;;4.13;2.77;;;;;;;;;;5079309;28;20210;-69
2023/09/16 02:39:57;;;;;;;3.77;3.03;;;;;;;;;;5079226;28;20216;-69
2023/09/16 02:42:25;;;;;;;5.03;2.93;;;;;;;;;;5079471;28;20208;-69
2023/09/16 02:44:53;;;;;;;5.40;3.10;;;;;;;;;;5079102;28;20208;-68
2023/09/16 02:47:21;;;;;;;4.43;2.80;;;;;;;;;;5079380;28;20209;-68
2023/09/16 02:49:49;;;;;;;3.17;2.90;;;;;;;;;;5079153;28;20249;-70
2023/09/16 02:52:20;;;;;;;3.37;3.00;;;;;;;;;;5079037;28;20250;-70
2023/09/16 02:54:48;;;;;;;7.67;3.20;;;;;;;;;;5079066;28;20236;-70
2023/09/16 02:57:16;;;;;;;3.47;3.13;;;;;;;;;;5078791;28;20721;-70
2023/09/16 02:59:44;;;;;;;3.33;2.67;;;;;;;;;;5078998;28;20207;-70
2023/09/16 03:02:14;;;;;;;3.17;2.87;;;;;;;;;;5078789;28;20664;-70
2023/09/16 03:04:42;;;;;;;4.63;3.23;;;;;;;;;;5078893;28;20216;-70
2023/09/16 03:07:10;;;;;;;5.67;3.30;;;;;;;;;;5078729;28;20212;-70
2023/09/16 03:09:40;;;;;;;5.03;3.70;;;;;;;;;;5078440;28;20227;-70
2023/09/16 03:12:08;;;;;;;4.03;3.60;;;;;;;;;;5078787;28;20290;-70
2023/09/16 03:14:36;;;;;;;5.57;3.90;;;;;;;;;;5078784;28;20211;-69
2023/09/16 03:17:04;;;;;;;4.20;3.80;;;;;;;;;;5078563;28;20206;-68
2023/09/16 03:19:32;;;;;;;6.83;3.30;;;;;;;;;;5065654;28;20204;-69
2023/09/16 03:22:00;;;;;;;4.27;3.00;;;;;;;;;;5078253;28;20228;-70
2023/09/16 03:24:28;;;;;;;5.60;3.60;;;;;;;;;;5078301;28;20239;-70
2023/09/16 03:26:57;;;;;;;5.87;3.27;;;;;;;;;;5078548;28;20214;-70
2023/09/16 03:29:26;;;;;;;3.53;3.23;;;;;;;;;;5078498;28;20213;-70
2023/09/16 03:31:53;;;;;;;4.40;3.70;;;;;;;;;;5078031;28;20287;-70
2023/09/16 03:34:22;;;;;;;5.57;3.30;;;;;;;;;;5078193;28;20203;-70
2023/09/16 03:36:50;;;;;;;7.17;3.57;;;;;;;;;;5078102;28;20208;-70
2023/09/16 03:39:19;;;;;;;4.60;3.33;;;;;;;;;;5078044;28;20702;-70
2023/09/16 03:41:47;;;;;;;6.73;3.43;;;;;;;;;;5078165;28;20224;-70
2023/09/16 03:44:16;;;;;;;5.73;3.53;;;;;;;;;;5078349;28;20204;-70
2023/09/16 03:46:45;;;;;;;4.80;3.70;;;;;;;;;;5078260;28;20214;-70
2023/09/16 03:49:13;;;;;;;6.27;3.70;;;;;;;;;;5078298;28;20295;-70
2023/09/16 03:51:41;;;;;;;4.27;3.20;;;;;;;;;;5077756;28;20236;-70
2023/09/16 03:54:09;;;;;;;5.43;3.70;;;;;;;;;;5077836;28;20216;-70
2023/09/16 03:56:37;;;;;;;5.27;3.23;;;;;;;;;;5077815;28;20249;-70
2023/09/16 03:59:05;;;;;;;6.67;3.53;;;;;;;;;;5078114;28;20240;-70
2023/09/16 04:01:34;;;;;;;3.73;3.10;;;;;;;;;;5077769;28;20705;-70
2023/09/16 04:04:03;;;;;;;5.27;3.50;;;;;;;;;;5077998;28;20207;-70
2023/09/16 04:06:31;;;;;;;4.73;3.10;;;;;;;;;;5077484;28;20229;-70
2023/09/16 04:09:00;;;;;;;5.40;3.50;;;;;;;;;;5077558;28;20231;-70
2023/09/16 04:11:28;;;;;;;4.60;3.17;;;;;;;;;;5077917;28;20264;-70
2023/09/16 04:13:56;;;;;;;4.77;3.30;;;;;;;;;;5077904;28;20206;-70
2023/09/16 04:16:25;;;;;;;5.23;3.90;;;;;;;;;;5077665;28;20540;-70
2023/09/16 04:18:55;;;;;;;4.60;3.37;;;;;;;;;;5077740;28;20205;-70
2023/09/16 04:21:24;;;;;;;5.20;4.00;;;;;;;;;;5076740;28;20222;-70
2023/09/16 04:23:52;;;;;;;4.90;3.70;;;;;;;;;;5077443;28;20209;-70
2023/09/16 04:26:21;;;;;;;5.27;3.60;;;;;;;;;;5077871;28;20213;-70
2023/09/16 04:28:49;;;;;;;4.70;3.70;;;;;;;;;;5077773;28;20219;-70
2023/09/16 04:31:17;;;;;;;4.93;3.33;;;;;;;;;;5077420;28;20233;-70
2023/09/16 04:33:46;;;;;;;4.67;3.57;;;;;;;;;;5077401;28;20213;-70
2023/09/16 04:36:17;;;;;;;4.37;3.97;;;;;;;;;;5077506;28;20213;-70
2023/09/16 04:38:46;;;;;;;3.90;3.10;;;;;;;;;;5077575;28;20208;-70
2023/09/16 04:41:14;;;;;;;3.93;3.10;;;;;;;;;;5077333;28;20221;-70
2023/09/16 04:43:43;;;;;;;4.50;4.10;;;;;;;;;;5077687;28;20215;-69
2023/09/16 04:46:11;;;;;;;4.53;3.70;;;;;;;;;;5077403;28;20205;-70
2023/09/16 04:48:39;;;;;;;3.97;3.50;;;;;;;;;;5077259;28;20576;-69
2023/09/16 04:51:07;;;;;;;3.70;3.40;;;;;;;;;;5077093;28;20235;-70
2023/09/16 04:53:37;;;;;;;4.00;3.13;;;;;;;;;;5077242;28;20605;-70
2023/09/16 04:56:06;;;;;;;4.13;3.47;;;;;;;;;;5077188;28;20246;-69
2023/09/16 04:58:34;;;;;;;5.33;3.00;;;;;;;;;;5077566;28;20209;-69
2023/09/16 05:01:04;;;;;;;6.40;3.30;;;;;;;;;;5077014;28;20229;-70
2023/09/16 05:03:32;;;;;;;5.47;3.63;;;;;;;;;;5077446;28;20217;-70
2023/09/16 05:06:00;;;;;;;3.20;2.90;;;;;;;;;;5076839;28;20261;-69
2023/09/16 05:08:28;;;;;;;4.00;2.87;;;;;;;;;;5077315;28;20220;-70
2023/09/16 05:10:58;;;;;;;5.87;3.37;;;;;;;;;;5077192;28;20230;-69
2023/09/16 05:13:26;;;;;;;5.07;3.40;;;;;;;;;;5077389;28;20233;-70
2023/09/16 05:15:54;;;;;;;3.87;2.60;;;;;;;;;;5077209;28;20264;-70
2023/09/16 05:18:25;;;;;;;2.73;2.43;;;;;;;;;;5076918;28;20671;-70
2023/09/16 05:20:53;;;;;;;3.10;2.90;;;;;;;;;;5076969;28;20282;-70
2023/09/16 05:23:23;;;;;;;3.60;2.93;;;;;;;;;;5077143;28;20220;-70
2023/09/16 05:25:51;;;;;;;3.40;3.10;;;;;;;;;;5076964;28;20570;-69
2023/09/16 05:28:21;;;;;;;5.23;2.93;;;;;;;;;;5077290;28;20209;-70
2023/09/16 05:30:49;;;;;;;3.30;2.60;;;;;;;;;;5077071;28;20257;-69
2023/09/16 05:33:17;;;;;;;4.33;3.00;;;;;;;;;;5077408;28;20212;-70
2023/09/16 05:35:46;;;;;;;5.20;2.90;;;;;;;;;;5080223;28;20207;-70
2023/09/16 05:38:13;;;;;;;4.20;2.90;;;;;;;;;;5080502;28;20237;-70
2023/09/16 05:40:41;;;;;;;4.13;2.87;;;;;;;;;;5080344;28;20759;-69
2023/09/16 05:43:09;;;;;;;3.37;2.77;;;;;;;;;;5080508;28;20223;-70
2023/09/16 05:45:39;;;;;;;5.20;3.30;;;;;;;;;;5080715;28;20205;-71
2023/09/16 05:48:07;;;;;;;3.53;2.60;;;;;;;;;;5080590;28;20213;-70
2023/09/16 05:50:35;;;;;;;6.33;2.70;;;;;;;;;;5079888;28;20229;-69
2023/09/16 05:53:04;;;;;;;3.43;2.87;;;;;;;;;;5080197;28;20243;-71
2023/09/16 05:55:33;;;;;;;3.90;3.00;;;;;;;;;;5080152;28;20293;-69
2023/09/16 05:58:01;;;;;;;3.50;2.77;;;;;;;;;;5080031;28;20290;-71
2023/09/16 06:00:29;;;;;;;5.30;3.20;;;;;;;;;;5080001;28;20235;-70
2023/09/16 06:02:58;;;;;;;3.23;2.77;;;;;;;;;;5080275;28;20202;-70
2023/09/16 06:05:29;;;;;;;4.53;3.13;;;;;;;;;;5079979;28;20215;-69
2023/09/16 06:07:57;;;;;;;4.07;2.90;;;;;;;;;;5079625;28;20597;-69
2023/09/16 06:10:29;;;;;;;4.27;2.83;;;;;;;;;;5079838;28;20233;-70
2023/09/16 06:12:57;;;;;;;9.60;3.10;;;;;;;;;;5080075;28;20307;-70
2023/09/16 06:15:25;;;;;;;3.50;3.20;;;;;;;;;;5079933;28;20267;-70
2023/09/16 06:17:53;;;;;;;3.10;2.60;;;;;;;;;;5079832;28;20230;-70
2023/09/16 06:20:22;;;;;;;3.93;2.90;;;;;;;;;;5079995;28;20256;-70
2023/09/16 06:22:50;;;;;;;6.33;3.00;;;;;;;;;;5079331;28;20233;-70
2023/09/16 06:25:18;;;;;;;3.40;3.10;;;;;;;;;;5079672;28;20230;-70
2023/09/16 06:27:46;;;;;;;6.77;3.63;;;;;;;;;;5079521;28;20573;-70
2023/09/16 06:30:14;;;;;;;4.23;2.80;;;;;;;;;;5079365;28;20227;-70
2023/09/16 06:32:42;;;;;;;5.40;3.23;;;;;;;;;;5079644;28;20226;-70
2023/09/16 06:35:10;;;;;;;5.77;2.93;;;;;;;;;;5079258;28;20553;-68
2023/09/16 06:37:40;;;;;;;4.13;2.57;;;;;;;;;;5079298;28;20213;-68
2023/09/16 06:40:08;;;;;;;4.60;2.67;;;;;;;;;;5079105;28;20232;-70
2023/09/16 06:42:36;;;;;;;2.53;2.30;;;;;;;;;;5079489;28;20204;-68
2023/09/16 06:45:05;;;;;;;6.30;2.50;;;;;;;;;;5078647;28;20667;-68
2023/09/16 06:47:32;;;;;;;4.93;2.73;;;;;;;;;;5079116;28;20653;-70
2023/09/16 06:50:01;;;;;;;4.03;2.50;;;;;;;;;;5079162;28;20224;-70
2023/09/16 06:52:29;;;;;;;8.20;3.77;;;;;;;;;;5078734;28;20230;-70
2023/09/16 06:54:58;;;;;;;4.90;3.10;;;;;;;;;;5078769;28;20207;-70
2023/09/16 06:57:27;;;;;;;6.17;3.40;;;;;;;;;;5078730;28;20238;-70
2023/09/16 06:59:55;;;;;;;4.97;3.50;;;;;;;;;;5078677;28;20664;-70
2023/09/16 07:02:25;;;;;;;10.17;3.43;;;;;;;;;;5079073;28;20204;-70
2023/09/16 07:04:55;;;;;;;6.50;3.30;;;;;;;;;;5078993;28;20238;-70
2023/09/16 07:07:23;;;;;;;6.27;3.03;;;;;;;;;;5078601;28;20208;-70
2023/09/16 07:09:53;;;;;;;3.27;2.83;;;;;;;;;;5078429;28;20211;-70
2023/09/16 07:12:24;;;;;;;8.67;2.70;;;;;;;;;;5078346;28;20224;-70
2023/09/16 07:14:52;;;;;;;8.87;3.37;;;;;;;;;;5078868;28;20214;-70
2023/09/16 07:17:20;;;;;;;4.27;2.80;;;;;;;;;;5078334;28;20289;-70
2023/09/16 07:19:48;;;;;;;6.50;3.00;;;;;;;;;;5078598;28;20217;-69
2023/09/16 07:22:18;;;;;;;3.17;2.20;;;;;;;;;;5078302;28;20202;-69
2023/09/16 07:24:46;;;;;;;4.43;2.47;;;;;;;;;;5078504;28;20220;-69
2023/09/16 07:27:14;;;;;;;4.87;2.63;;;;;;;;;;5078129;28;20297;-70
2023/09/16 07:29:43;;;;;;;3.67;2.30;;;;;;;;;;5078448;28;20214;-70
2023/09/16 07:32:11;;;;;;;2.27;2.07;;;;;;;;;;5078066;28;20236;-70
2023/09/16 07:34:39;;;;;;;2.23;1.70;;;;;;;;;;5078465;28;20208;-70
2023/09/16 07:37:07;;;;;;;4.37;2.30;;;;;;;;;;5077801;28;20686;-70
2023/09/16 07:39:35;;;;;;;3.60;2.00;;;;;;;;;;5077824;28;20220;-70
2023/09/16 07:42:04;;;;;;;1.83;1.73;;;;;;;;;;5078213;28;20215;-70
2023/09/16 07:44:32;;;;;;;4.83;1.93;;;;;;;;;;5078245;28;20570;-69
2023/09/16 07:47:03;;;;;;;2.00;1.80;;;;;;;;;;5078242;28;20217;-70
2023/09/16 07:49:31;;;;;;;2.10;1.87;;;;;;;;;;5078183;28;20210;-70
2023/09/16 07:51:59;;;;;;;2.63;2.10;;;;;;;;;;5077825;28;20235;-70
2023/09/16 07:54:27;;;;;;;2.50;1.80;;;;;;;;;;5077590;28;20262;-70
2023/09/16 07:56:55;;;;;;;2.30;2.10;;;;;;;;;;5077084;28;20233;-70
2023/09/16 07:59:23;;;;;;;3.97;2.27;;;;;;;;;;5077553;28;20204;-70
2023/09/16 08:01:51;;;;;;;2.20;2.00;;;;;;;;;;5077921;28;20240;-70
2023/09/16 08:04:21;;;;;;;2.43;2.23;;;;;;;;;;5077815;28;20235;-70
2023/09/16 08:06:50;;;;;;;4.83;2.87;;;;;;;;;;5077443;28;20213;-70
2023/09/16 08:09:18;;;;;;;2.73;2.27;;;;;;;;;;5077837;28;20217;-70
2023/09/16 08:11:46;;;;;;;2.97;2.57;;;;;;;;;;5077464;28;20240;-70
2023/09/16 08:14:14;;;;;;;6.40;2.67;;;;;;;;;;5077870;28;20212;-70
2023/09/16 08:16:42;;;;;;;3.00;2.70;;;;;;;;;;5077845;28;20287;-70
2023/09/16 08:19:10;;;;;;;3.43;2.40;;;;;;;;;;5077485;28;20208;-70
2023/09/16 08:21:40;;;;;;;2.47;2.27;;;;;;;;;;5077530;28;20225;-70
2023/09/16 08:24:08;;;;;;;4.00;2.10;;;;;;;;;;5077318;28;20293;-70
2023/09/16 08:26:36;;;;;;;3.87;2.10;;;;;;;;;;5077460;28;20569;-70
2023/09/16 08:29:07;;;;;;;3.03;2.37;;;;;;;;;;5077712;28;20216;-70
2023/09/16 08:31:35;;;;;;;2.87;2.33;;;;;;;;;;5077652;28;20228;-70
2023/09/16 08:34:03;;;;;;;5.50;2.67;;;;;;;;;;5077482;28;20248;-70
2023/09/16 08:36:31;;;;;;;4.00;2.67;;;;;;;;;;5077391;28;20209;-70
2023/09/16 08:39:00;;;;;;;3.33;3.00;;;;;;;;;;5077427;28;20748;-70
2023/09/16 08:41:30;;;;;;;5.27;2.67;;;;;;;;;;5077230;28;20228;-70
2023/09/16 08:43:59;;;;;;;2.60;2.00;;;;;;;;;;5077448;28;20227;-70
2023/09/16 08:46:29;;;;;;;3.70;2.60;;;;;;;;;;5077311;28;20575;-71
2023/09/16 08:49:00;;;;;;;6.33;2.63;;;;;;;;;;5077748;28;20216;-70
2023/09/16 08:51:31;;;;;;;3.00;2.70;;;;;;;;;;5077192;28;20765;-71
2023/09/16 08:54:01;;;;;;;4.23;2.73;;;;;;;;;;5077289;28;20229;-70
2023/09/16 08:56:30;;;;;;;3.83;2.70;;;;;;;;;;5077073;28;20237;-70
2023/09/16 08:58:58;;;;;;;5.80;2.70;;;;;;;;;;5077072;28;20209;-71
2023/09/16 09:01:27;;;;;;;5.60;2.53;;;;;;;;;;5077242;28;20235;-70
2023/09/16 09:03:55;;;;;;;3.00;2.70;;;;;;;;;;5077035;28;20726;-70
2023/09/16 09:06:23;;;;;;;4.30;2.60;;;;;;;;;;5076686;28;20202;-70
2023/09/16 09:09:08;;;;;;;3.70;2.53;;;;;;;;;;5080517;28;20209;-70
2023/09/16 09:11:37;;;;;;;4.53;2.80;;;;;;;;;;5081048;28;20241;-70
2023/09/16 09:14:09;;;;;;;3.13;2.63;;;;;;;;;;5080623;28;20234;-71
2023/09/16 09:16:39;;;;;;;3.93;2.40;;;;;;;;;;5081149;28;20210;-70
2023/09/16 09:19:08;;;;;;;5.80;3.10;;;;;;;;;;5080890;28;20228;-70
2023/09/16 09:21:36;;;;;;;4.20;2.50;;;;;;;;;;5080397;28;20277;-70
2023/09/16 09:24:04;;;;;;;4.53;2.70;;;;;;;;;;5080756;28;20267;-70
2023/09/16 09:26:34;;;;;;;8.07;3.40;;;;;;;;;;5080817;28;20206;-71
2023/09/16 09:29:09;;;;;;;4.00;2.90;;;;;;;;;;5080758;28;20209;-71
2023/09/16 09:31:37;;;;;;;4.17;3.50;;;;;;;;;;5080664;28;20228;-70
2023/09/16 09:34:05;;;;;;;3.33;2.97;;;;;;;;;;5066844;28;20644;-70
2023/09/16 09:36:35;;;;;;;7.37;2.80;;;;;;;;;;5080054;28;20273;-70
2023/09/16 09:39:09;;;;;;;8.77;2.80;;;;;;;;;;5080530;28;20251;-70
2023/09/16 09:41:44;;;;;;;2.50;2.30;;;;;;;;;;5080181;28;20232;-70
2023/09/16 09:44:12;;;;;;;2.60;2.40;;;;;;;;;;5080332;28;20251;-70
2023/09/16 09:46:40;;;;;;;3.30;2.77;;;;;;;;;;5080267;28;20224;-70
2023/09/16 09:49:10;;;;;;;7.27;2.40;;;;;;;;;;5080212;28;20655;-70
2023/09/16 09:51:39;;;;;;;4.60;2.50;;;;;;;;;;5079793;28;20228;-70
2023/09/16 09:54:07;;;;;;;3.80;2.47;;;;;;;;;;5079872;28;20713;-70
2023/09/16 09:56:36;;;;;;;3.43;2.43;;;;;;;;;;5079875;28;20595;-70
2023/09/16 09:59:05;;;;;;;4.00;2.57;;;;;;;;;;5080286;28;20220;-70
2023/09/16 10:01:34;;;;;;;7.90;3.07;;;;;;;;;;5080552;28;20267;-70
2023/09/16 10:04:03;;;;;;;9.60;3.30;;;;;;;;;;5080192;28;20205;-70
2023/09/16 10:06:31;;;;;;;3.20;2.90;;;;;;;;;;5079541;28;20228;-70
2023/09/16 10:08:59;;;;;;;4.17;2.70;;;;;;;;;;5079681;28;20206;-70
2023/09/16 10:11:28;;;;;;;5.10;2.20;;;;;;;;;;5080005;28;20239;-68
2023/09/16 10:13:56;;;;;;;5.63;2.70;;;;;;;;;;5079950;28;20230;-69
2023/09/16 10:16:25;;;;;;;7.80;2.47;;;;;;;;;;5079712;28;20208;-70
2023/09/16 10:18:54;;;;;;;4.43;2.33;;;;;;;;;;5079064;28;20204;-69
2023/09/16 10:21:22;;;;;;;4.30;2.30;;;;;;;;;;5079097;28;20232;-68
2023/09/16 10:23:51;;;;;;;5.70;2.67;;;;;;;;;;5079348;28;20204;-69
2023/09/16 10:26:21;;;;;;;6.10;2.67;;;;;;;;;;5079472;28;20254;-70
2023/09/16 10:28:51;;;;;;;6.53;2.57;;;;;;;;;;5079497;28;20238;-70
2023/09/16 10:31:20;;;;;;;3.57;2.10;;;;;;;;;;5079686;28;20235;-70
2023/09/16 10:33:50;;;;;;;4.27;2.47;;;;;;;;;;5079200;28;20592;-68
2023/09/16 10:36:18;;;;;;;11.23;7.70;;;;;;;;;;5078989;28;20209;-70
2023/09/16 10:38:47;;;;;;;5.93;2.63;;;;;;;;;;5079029;28;20218;-68
2023/09/16 10:41:16;;;;;;;3.37;1.97;;;;;;;;;;5079269;28;20225;-70
2023/09/16 10:43:46;;;;;;;4.53;1.70;;;;;;;;;;5079049;28;20212;-69
2023/09/16 10:46:14;;;;;;;3.30;1.87;;;;;;;;;;5079289;28;20292;-70
2023/09/16 10:48:43;;;;;;;3.27;1.97;;;;;;;;;;5079072;28;20206;-70
2023/09/16 10:51:15;;;;;;;2.60;1.80;;;;;;;;;;5078643;28;20260;-70
2023/09/16 10:53:45;;;;;;;2.23;1.67;;;;;;;;;;5079086;28;20312;-70
2023/09/16 10:56:16;;;;;;;5.27;1.83;;;;;;;;;;5078997;28;20240;-70
2023/09/16 10:58:47;;;;;;;4.97;2.00;;;;;;;;;;5079530;28;20219;-70
2023/09/16 11:01:18;;;;;;;3.80;2.20;;;;;;;;;;5079228;28;20235;-68
2023/09/16 11:03:49;;;;;;;3.77;1.80;;;;;;;;;;5079009;28;20201;-70
2023/09/16 11:06:19;;;;;;;1.43;1.33;;;;;;;;;;5079853;28;20213;-69
2023/09/16 11:08:47;;;;;;;3.30;1.63;;;;;;;;;;5078654;28;20209;-69
2023/09/16 11:11:16;;;;;;;3.00;1.87;;;;;;;;;;5078567;28;20228;-69
2023/09/16 11:13:44;;;;;;;3.27;1.97;;;;;;;;;;5078651;28;20209;-69
2023/09/16 11:16:13;;;;;;;2.40;1.60;;;;;;;;;;5078331;28;20581;-70
2023/09/16 11:18:42;;;;;;;1.70;1.50;;;;;;;;;;5078587;28;20202;-70
2023/09/16 11:21:12;;;;;;;2.73;1.80;;;;;;;;;;5078340;28;20231;-70
2023/09/16 11:23:44;;;;;;;4.73;1.60;;;;;;;;;;5078194;28;20217;-70
2023/09/16 11:26:17;;;;;;;2.90;1.60;;;;;;;;;;5078406;28;20212;-70
2023/09/16 11:28:45;;;;;;;3.03;1.40;;;;;;;;;;5078224;28;20611;-70
2023/09/16 11:31:13;;;;;;;3.23;1.73;;;;;;;;;;5078184;28;20229;-70
2023/09/16 11:33:43;;;;;;;2.20;1.77;;;;;;;;;;5078139;28;20675;-70
2023/09/16 11:36:11;;;;;;;2.53;1.50;;;;;;;;;;5077979;28;20229;-70
2023/09/16 11:38:39;;;;;;;3.20;1.97;;;;;;;;;;5078302;28;20291;-70
2023/09/16 11:41:13;;;;;;;4.40;2.57;;;;;;;;;;5078448;28;20234;-70
2023/09/16 11:43:41;;;;;;;2.13;1.83;;;;;;;;;;5078267;28;20216;-68
2023/09/16 11:46:11;;;;;;;1.93;1.83;;;;;;;;;;5078019;28;20659;-70
2023/09/16 11:48:52;;;;;;;1.90;1.50;;;;;;;;;;5077942;28;20259;-69
2023/09/16 11:51:22;;;;;;;2.57;1.83;;;;;;;;;;5077819;28;20229;-69
2023/09/16 11:53:51;;;;;;;3.53;1.60;;;;;;;;;;5077815;28;20206;-69
2023/09/16 11:56:22;;;;;;;3.53;2.00;;;;;;;;;;5078049;28;20661;-70
2023/09/16 11:58:53;;;;;;;2.87;1.90;;;;;;;;;;5078232;28;20210;-70
2023/09/16 12:01:25;;;;;;;4.30;2.00;;;;;;;;;;5078189;28;20353;-70
2023/09/16 12:03:55;;;;;;;2.60;1.70;;;;;;;;;;5078169;28;20211;-70
2023/09/16 12:06:26;;;;;;;2.60;2.20;;;;;;;;;;5078129;28;20213;-70
2023/09/16 12:08:55;;;;;;;3.80;1.83;;;;;;;;;;5077835;28;20210;-70
2023/09/16 12:11:25;;;;;;;1.80;1.70;;;;;;;;;;5077813;28;20223;-70
2023/09/16 12:13:54;;;;;;;4.77;1.90;;;;;;;;;;5077816;28;20207;-70
2023/09/16 12:16:23;;;;;;;4.57;1.80;;;;;;;;;;5077913;28;20227;-70
2023/09/16 12:18:51;;;;;;;7.43;3.70;;;;;;;;;;5072298;28;20202;-70
2023/09/16 12:21:19;;;;;;;5.40;2.80;;;;;;;;;;5077292;28;20272;-70
2023/09/16 12:23:48;;;;;;;5.60;2.87;;;;;;;;;;5077620;28;20250;-70
2023/09/16 12:26:16;;;;;;;2.33;1.73;;;;;;;;;;5077609;28;20672;-70
2023/09/16 12:28:46;;;;;;;2.50;2.30;;;;;;;;;;5077712;28;20220;-70
2023/09/16 12:31:21;;;;;;;3.73;2.00;;;;;;;;;;5077459;28;20334;-70
2023/09/16 12:33:53;;;;;;;4.70;1.90;;;;;;;;;;5077465;28;20216;-71
2023/09/16 12:36:25;;;;;;;4.30;1.97;;;;;;;;;;5077426;28;20230;-70
2023/09/16 12:38:54;;;;;;;2.77;2.33;;;;;;;;;;5077598;28;20214;-70
2023/09/16 12:41:25;;;;;;;4.60;2.00;;;;;;;;;;5077240;28;20663;-70
2023/09/16 12:43:55;;;;;;;3.33;1.97;;;;;;;;;;5081143;28;20218;-70
2023/09/16 12:46:24;;;;;;;2.50;1.63;;;;;;;;;;5081429;28;20225;-70
2023/09/16 12:48:52;;;;;;;4.23;2.10;;;;;;;;;;5081461;28;20571;-70
2023/09/16 12:51:21;;;;;;;2.70;2.00;;;;;;;;;;5080908;28;20226;-68
2023/09/16 12:53:52;;;;;;;2.70;2.33;;;;;;;;;;5081173;28;20565;-70
2023/09/16 12:56:20;;;;;;;2.37;1.77;;;;;;;;;;5081124;28;20237;-69
2023/09/16 12:58:49;;;;;;;2.17;1.60;;;;;;;;;;5081182;28;20208;-70
2023/09/16 13:01:19;;;;;;;3.40;1.90;;;;;;;;;;5081272;28;20237;-69
2023/09/16 13:03:48;;;;;;;3.73;1.87;;;;;;;;;;5081393;28;20255;-69
2023/09/16 13:06:16;;;;;;;3.20;2.00;;;;;;;;;;5080788;28;20729;-69
2023/09/16 13:08:44;;;;;;;6.33;1.97;;;;;;;;;;5081147;28;20297;-69
2023/09/16 13:11:15;;;;;;;3.63;2.00;;;;;;;;;;5081082;28;20227;-69
2023/09/16 13:13:43;;;;;;;3.90;1.90;;;;;;;;;;5081176;28;20216;-70
2023/09/16 13:16:11;;;;;;;3.37;2.00;;;;;;;;;;5080751;28;20232;-69
2023/09/16 13:18:40;;;;;;;6.70;1.80;;;;;;;;;;5080896;28;20202;-70
2023/09/16 13:21:08;;;;;;;5.00;2.40;;;;;;;;;;5080706;28;20296;-70
2023/09/16 13:23:37;;;;;;;4.30;2.50;;;;;;;;;;5080585;28;20625;-68
2023/09/16 13:26:09;;;;;;;3.25;1.80;;;;;;;;;;5080723;28;20210;-70
2023/09/16 13:28:38;;;;;;;6.63;2.03;;;;;;;;;;5080974;28;20202;-70
2023/09/16 13:31:06;;;;;;;4.43;2.40;;;;;;;;;;5080809;28;20223;-69
2023/09/16 13:33:47;;;;;;;2.75;2.17;;;;;;;;;;5080581;28;20213;-71
2023/09/16 13:36:16;;;;;;;3.25;1.98;;;;;;;;;;5080462;28;20238;-70
2023/09/16 13:38:45;;;;;;;5.95;2.47;;;;;;;;;;5080547;28;20289;-69
2023/09/16 13:41:13;;;;;;;7.30;2.40;;;;;;;;;;5080521;28;20228;-69
2023/09/16 13:43:41;;;;;;;3.83;1.95;;;;;;;;;;5080646;28;20204;-69
2023/09/16 13:46:09;;;;;;;4.28;2.67;;;;;;;;;;5080643;28;20206;-70
2023/09/16 13:48:37;;;;;;;6.32;2.30;;;;;;;;;;5080496;28;20266;-70
2023/09/16 13:51:07;;;;;;;2.63;1.85;;;;;;;;;;5080242;28;20328;-68
2023/09/16 13:53:36;;;;;;;4.35;2.28;;;;;;;;;;5079632;28;20214;-70
2023/09/16 13:56:05;;;;;;;5.78;2.72;;;;;;;;;;5079714;28;20247;-70
2023/09/16 13:58:33;;;;;;;4.47;1.92;;;;;;;;;;5080242;28;20690;-69
2023/09/16 14:01:01;;;;;;;6.72;2.30;;;;;;;;;;5080199;28;20236;-70
2023/09/16 14:03:29;;;;;;;2.90;2.15;;;;;;;;;;5080339;28;20241;-70
2023/09/16 14:05:57;;;;;;;5.38;2.65;;;;;;;;;;5079968;28;20204;-70
2023/09/16 14:08:27;;;;;;;2.47;1.80;;;;;;;;;;5079922;28;20617;-68
2023/09/16 14:10:55;;;;;;;4.13;1.98;;;;;;;;;;5080055;28;20224;-70
2023/09/16 14:13:23;;;;;;;5.43;1.60;;;;;;;;;;5080169;28;20216;-71
2023/09/16 14:15:51;;;;;;;6.78;2.00;;;;;;;;;;5079934;28;20221;-70
2023/09/16 14:18:19;;;;;;;6.03;2.00;;;;;;;;;;5079666;28;20212;-70
2023/09/16 14:20:49;;;;;;;3.05;2.10;;;;;;;;;;5079544;28;20232;-70
2023/09/16 14:23:18;;;;;;;3.97;1.50;;;;;;;;;;5079583;28;20662;-70
2023/09/16 14:25:48;;;;;;;4.63;2.00;;;;;;;;;;5079868;28;20208;-70
2023/09/16 14:28:16;;;;;;;4.15;2.08;;;;;;;;;;5079653;28;20248;-70
2023/09/16 14:30:44;;;;;;;4.43;2.00;;;;;;;;;;5079763;28;20284;-70
2023/09/16 14:33:12;;;;;;;4.18;1.98;;;;;;;;;;5079792;28;20219;-70
2023/09/16 14:35:40;;;;;;;4.53;2.10;;;;;;;;;;5079213;28;20230;-70
2023/09/16 14:38:08;;;;;;;3.38;2.00;;;;;;;;;;5079633;28;20211;-70
2023/09/16 14:40:37;;;;;;;4.00;1.77;;;;;;;;;;5079516;28;20218;-70
2023/09/16 14:43:07;;;;;;;3.20;1.87;;;;;;;;;;5079274;28;20580;-70
2023/09/16 14:45:35;;;;;;;5.23;1.83;;;;;;;;;;5079559;28;20207;-70
2023/09/16 14:48:03;;;;;;;2.50;1.87;;;;;;;;;;5079283;28;20209;-70
2023/09/16 14:50:32;;;;;;;3.53;2.00;;;;;;;;;;5079142;28;20272;-71
2023/09/16 14:53:02;;;;;;;5.23;1.93;;;;;;;;;;5079474;28;20222;-70